Latest Weather Observations for Cape Jaffa

IDS60801

Issued at 3:21 pm CST Wednesday 20 June 2018 (issued every 10 minutes, with the page automatically refreshed every 10 minutes)

About weather observations | Map of weather stations | Latest weather observations for SA | Other Formats
Station Details ID: 026095 Name: THE LIMESTONE Lat: -36.97 Lon: 139.72 Height: 17.0 m
Data from the previous 72 hours. | See also: Recent months at Cape Jaffa
Date/Time
CST
Temp
°C
App
Temp
°C
Dew
Point
°C
Rel
Hum
%
Delta-T
°C
Wind Press
QNH
hPa
Press
MSL
hPa
Rain since
9am
mm
Dir  Spd
km/h
Gust
km/h
Spd
kts
Gust
kts
20/03:00pm 12.0 6.8 7.3 73 2.3 N 24 32 13 17 1024.7 1024.7 0.0
20/02:30pm 12.2 7.0 7.1 71 2.4 N 24 30 13 16 1024.5 1024.5 0.0
20/02:00pm 12.6 7.0 7.1 69 2.7 N 26 33 14 18 1024.3 1024.3 0.0
20/01:30pm 12.6 7.7 6.9 68 2.7 N 22 30 12 16 1024.2 1024.2 0.0
20/01:00pm 11.9 6.6 6.6 70 2.5 N 24 30 13 16 1024.5 1024.5 0.0
20/12:30pm 11.3 5.6 6.8 74 2.1 N 26 32 14 17 1024.6 1024.6 0.0
20/12:00pm 12.0 6.5 7.5 74 2.2 N 26 32 14 17 1024.8 1024.8 0.0
20/11:30am 10.4 4.7 6.7 78 1.7 N 26 32 14 17 1024.9 1024.9 0.0
20/11:00am 10.7 5.4 6.8 77 1.8 NNE 24 30 13 16 1025.1 1025.1 0.0
20/10:30am 10.2 5.7 6.9 80 1.5 NNE 20 26 11 14 1025.4 1025.4 0.0
20/10:00am 10.5 5.7 7.2 80 1.6 NNE 22 30 12 16 1025.6 1025.6 0.0
20/09:30am 9.0 5.4 6.6 85 1.1 NNE 15 20 8 11 1025.5 1025.5 0.0
20/09:00am 8.1 3.9 5.9 86 1.0 NE 17 20 9 11 1025.4 1025.4 0.0
20/08:30am 7.8 4.4 5.8 87 0.9 NNE 13 17 7 9 1025.2 1025.2 0.0
20/08:00am 7.7 2.9 5.5 86 1.0 NNE 20 26 11 14 1024.8 1024.8 0.0
20/07:30am 7.8 3.0 5.4 85 1.1 NNE 20 28 11 15 1024.6 1024.6 0.0
20/07:00am 8.2 4.0 5.8 85 1.1 NNE 17 24 9 13 1024.3 1024.3 0.0
20/06:30am 8.2 4.0 5.8 85 1.1 NNE 17 22 9 12 1023.9 1023.9 0.0
20/06:00am 8.7 4.0 6.0 83 1.2 NNE 20 28 11 15 1023.7 1023.7 0.0
20/05:30am 8.3 3.2 5.8 84 1.1 NNE 22 28 12 15 1023.5 1023.5 0.0
20/05:00am 9.0 4.6 6.6 85 1.1 NNE 19 28 10 15 1023.4 1023.4 0.0
20/04:30am 8.8 4.1 6.1 83 1.2 NNE 20 26 11 14 1023.4 1023.4 0.0
20/04:00am 8.8 3.8 6.3 84 1.2 NNE 22 32 12 17 1023.4 1023.4 0.0
20/03:30am 8.8 4.2 6.3 84 1.1 NNE 20 24 11 13 1023.7 1023.7 0.0
20/03:00am 8.5 3.8 6.1 85 1.1 NNE 20 26 11 14 1023.8 1023.8 0.0
20/02:30am 9.2 4.6 6.6 84 1.2 NNE 20 26 11 14 1023.9 1023.9 0.0
20/02:00am 9.1 4.5 6.5 84 1.2 NNE 20 26 11 14 1023.6 1023.6 0.0
20/01:30am 9.2 4.6 6.5 83 1.2 NNE 20 26 11 14 1023.6 1023.6 0.0
20/01:00am 9.3 4.3 6.4 82 1.3 N 22 30 12 16 1023.7 1023.7 0.0
20/12:30am 8.8 4.2 6.3 84 1.1 NNE 20 24 11 13 1024.1 1024.1 0.0
20/12:00am 8.7 3.9 5.8 82 1.3 NNE 20 26 11 14 1024.1 1024.1 0.0
 
Date/Time
CST
Temp
°C
App
Temp
°C
Dew
Point
°C
Rel
Hum
%
Delta-T
°C
Wind Press
QNH
hPa
Press
MSL
hPa
Rain since
9am
mm
Dir  Spd
km/h
Gust
km/h
Spd
kts
Gust
kts
19/11:30pm 8.6 4.1 5.9 83 1.2 NNE 19 22 10 12 1024.2 1024.2 0.0
19/11:00pm 9.1 4.6 6.0 81 1.4 NNE 19 26 10 14 1024.3 1024.3 0.0
19/10:30pm 9.3 4.6 5.9 79 1.5 NNE 20 26 11 14 1024.4 1024.4 0.0
19/10:00pm 9.7 3.8 5.7 76 1.8 N 26 33 14 18 1024.4 1024.4 0.0
19/09:30pm 9.1 3.9 5.7 79 1.5 NNE 22 28 12 15 1024.6 1024.6 0.0
19/09:00pm 9.2 4.0 5.6 78 1.6 NNE 22 30 12 16 1024.5 1024.5 0.0
19/08:30pm 9.2 4.4 5.8 79 1.5 NNE 20 26 11 14 1024.6 1024.6 0.0
19/08:00pm 9.2 4.5 5.9 80 1.5 NNE 20 26 11 14 1024.6 1024.6 0.0
19/07:30pm 8.9 4.4 6.0 82 1.3 NE 19 24 10 13 1024.5 1024.5 0.0
19/07:00pm 7.8 4.3 5.4 85 1.1 NE 13 19 7 10 1024.6 1024.6 0.0
19/06:30pm 7.7 3.3 4.8 82 1.3 NE 17 20 9 11 1024.2 1024.2 0.0
19/06:00pm 8.1 4.1 5.0 81 1.4 NE 15 17 8 9 1024.4 1024.4 0.0
19/05:30pm 9.2 4.9 5.2 76 1.8 NNE 17 20 9 11 1024.1 1024.1 0.0
19/05:00pm 10.1 5.9 5.7 74 2.0 N 17 22 9 12 1024.2 1024.2 0.0
19/04:30pm 10.1 5.9 5.9 75 1.9 NNE 17 22 9 12 1024.5 1024.5 0.0
19/04:00pm 10.2 5.4 5.6 73 2.1 N 20 26 11 14 1024.9 1024.9 0.0
19/03:30pm 10.1 5.5 5.5 73 2.1 N 19 24 10 13 1024.7 1024.7 0.0
19/03:00pm 10.2 5.0 5.6 73 2.1 NNE 22 26 12 14 1024.7 1024.7 0.0
19/02:30pm 10.2 4.6 5.2 71 2.3 N 24 32 13 17 1024.6 1024.6 0.0
19/02:00pm 10.4 4.8 5.6 72 2.2 N 24 35 13 19 1024.8 1024.8 0.0
19/01:30pm 9.9 3.9 5.1 72 2.2 N 26 33 14 18 1025.2 1025.2 0.0
19/01:00pm 9.9 4.3 5.3 73 2.1 N 24 32 13 17 1025.4 1025.4 0.0
19/12:30pm 9.6 3.9 5.0 73 2.1 NNE 24 32 13 17 1025.8 1025.8 0.0
19/12:00pm 9.6 4.0 5.4 75 1.9 NNE 24 30 13 16 1026.1 1026.1 0.0
19/11:30am 10.2 5.1 6.0 75 1.9 N 22 28 12 15 1027.0 1027.0 0.0
19/11:00am 9.8 4.2 5.4 74 2.0 N 24 30 13 16 1027.2 1027.2 0.0
19/10:30am 9.7 3.4 5.5 75 1.9 NNE 28 32 15 17 1027.2 1027.2 0.0
19/10:00am 9.2 4.0 5.6 78 1.6 NNE 22 32 12 17 1027.2 1027.2 0.0
19/09:30am 8.9 3.7 5.5 79 1.5 NNE 22 30 12 16 1027.3 1027.3 0.0
19/09:00am 8.4 4.3 6.0 85 1.1 NNE 17 20 9 11 1027.4 1027.4 0.2
19/08:30am 4.3 0.3 2.8 90 0.6 NE 13 15 7 8 1027.8 1027.8 0.2
19/08:00am 3.9 0.2 2.3 89 0.6 ENE 11 13 6 7 1027.6 1027.6 0.2
19/07:30am 4.0 -0.1 2.4 89 0.6 ENE 13 15 7 8 1027.2 1027.2 0.2
19/07:00am 4.1 0.8 2.5 89 0.6 NE 9 11 5 6 1027.7 1027.7 0.2
19/06:30am 3.7 0.3 1.7 87 0.8 NE 9 11 5 6 1027.5 1027.5 0.2
19/06:00am 4.8 2.5 2.8 87 0.8 NE 4 6 2 3 1027.8 1027.8 0.2
19/05:30am 3.7 1.2 1.7 87 0.8 ENE 4 6 2 3 1027.8 1027.8 0.2
19/05:00am 4.4 0.7 2.3 86 0.8 ENE 11 13 6 7 1027.3 1027.3 0.2
19/04:30am 4.9 1.7 2.8 86 0.8 ENE 9 11 5 6 1027.4 1027.4 0.2
19/04:00am 5.2 1.9 2.7 84 1.0 ENE 9 9 5 5 1028.0 1028.0 0.2
19/03:30am 5.2 1.6 2.7 84 1.0 ENE 11 11 6 6 1027.8 1027.8 0.2
19/03:00am 5.8 3.0 3.0 82 1.1 NE 7 9 4 5 1028.2 1028.2 0.2
19/02:30am 6.1 2.8 2.6 78 1.4 NNE 9 9 5 5 1028.5 1028.5 0.2
19/02:00am 6.2 3.4 3.0 80 1.3 NNW 7 7 4 4 1029.3 1029.3 0.2
19/01:30am 7.0 4.3 3.6 79 1.4 NE 7 7 4 4 1028.2 1028.2 0.2
19/01:00am 7.2 3.3 3.4 77 1.6 NE 13 19 7 10 1028.0 1028.0 0.2
19/12:30am 8.9 4.9 4.7 75 1.8 ENE 15 20 8 11 1028.3 1028.3 0.2
19/12:00am 8.8 5.9 4.8 76 1.8 ENE 9 11 5 6 1029.0 1029.0 0.2
 
Date/Time
CST
Temp
°C
App
Temp
°C
Dew
Point
°C
Rel
Hum
%
Delta-T
°C
Wind Press
QNH
hPa
Press
MSL
hPa
Rain since
9am
mm
Dir  Spd
km/h
Gust
km/h
Spd
kts
Gust
kts
18/11:30pm 9.1 6.6 4.7 74 1.9 ENE 7 11 4 6 1029.8 1029.8 0.2
18/11:00pm 9.4 6.9 4.6 72 2.1 NE 7 9 4 5 1029.9 1029.9 0.2
18/10:30pm 9.3 7.0 4.9 74 2.0 ENE 6 9 3 5 1029.5 1029.5 0.2
18/10:00pm 9.4 5.4 4.8 73 2.1 E 15 20 8 11 1028.5 1028.5 0.2
18/09:30pm 9.4 6.9 5.0 74 2.0 ESE 7 9 4 5 1028.8 1028.8 0.2
18/09:00pm 9.6 7.1 5.0 73 2.1 ESE 7 11 4 6 1029.1 1029.1 0.2
18/08:30pm 9.7 7.4 4.9 72 2.1 ESE 6 9 3 5 1029.3 1029.3 0.2
18/08:00pm 9.7 7.2 4.9 72 2.2 SE 7 13 4 7 1029.5 1029.5 0.2
18/07:30pm 9.8 7.3 5.0 72 2.1 ESE 7 9 4 5 1029.5 1029.5 0.2
18/07:00pm 10.2 6.9 4.8 69 2.4 SE 11 15 6 8 1029.4 1029.4 0.2
18/06:30pm 10.1 7.4 5.5 73 2.1 SE 9 13 5 7 1029.5 1029.5 0.2
18/06:00pm 10.4 8.1 5.8 73 2.1 SSE 7 11 4 6 1029.5 1029.5 0.2
18/05:30pm 10.5 8.3 5.5 71 2.3 SSE 6 11 3 6 1029.5 1029.5 0.2
18/05:00pm 10.8 8.0 5.3 69 2.5 SSE 9 15 5 8 1028.9 1028.9 0.2
18/04:30pm 10.9 8.2 5.4 69 2.5 SSE 9 15 5 8 1029.0 1029.0 0.2
18/04:00pm 11.2 8.2 6.1 71 2.4 S 11 17 6 9 1029.1 1029.1 0.2
18/03:30pm 11.5 8.8 5.8 68 2.6 SSE 9 13 5 7 1029.0 1029.0 0.2
18/03:00pm 11.7 9.6 6.6 71 2.4 S 7 9 4 5 1029.0 1029.0 0.2
18/02:30pm 11.7 9.6 6.6 71 2.4 S 7 11 4 6 1029.0 1029.0 0.2
18/02:00pm 12.0 10.0 6.1 67 2.8 SSW 6 7 3 4 1029.3 1029.3 0.2
18/01:30pm 12.0 10.8 6.3 68 2.7 SE 2 6 1 3 1029.6 1029.6 0.2
18/01:00pm 11.8 9.8 6.1 68 2.7 SSE 6 13 3 7 1029.7 1029.7 0.2
18/12:30pm 12.0 9.9 6.5 69 2.6 SE 7 13 4 7 1029.9 1029.9 0.2
18/12:00pm 11.9 9.9 6.4 69 2.6 SSE 6 7 3 4 1030.2 1030.2 0.2
18/11:30am 11.7 9.9 7.0 73 2.2 SE 6 7 3 4 1030.5 1030.5 0.2
18/11:00am 11.4 9.1 7.3 76 2.0 ESE 9 13 5 7 1030.8 1030.8 0.2
18/10:30am 11.4 9.3 8.4 82 1.5 ESE 9 15 5 8 1030.8 1030.8 0.2
18/10:00am 10.8 9.2 8.2 84 1.3 SE 6 9 3 5 1030.7 1030.7 0.2
18/09:30am 9.9 8.8 8.3 90 0.8 SE 4 7 2 4 1030.6 1030.6 0.0
18/09:00am 8.6 6.8 7.2 91 0.7 SE 6 7 3 4 1030.5 1030.5 1.0
18/08:30am 7.4 5.3 6.0 91 0.6 E 6 7 3 4 1030.2 1030.2 1.0
18/08:00am 7.2 4.9 5.8 91 0.6 ESE 7 11 4 6 1030.0 1030.0 1.0
18/07:30am 7.2 5.0 6.0 92 0.5 ESE 7 9 4 5 1029.7 1029.7 1.0
18/07:00am 6.8 5.4 5.4 91 0.6 SSE 2 6 1 3 1029.5 1029.5 1.0
18/06:30am 7.1 5.0 5.6 90 0.7 ESE 6 9 3 5 1029.3 1029.3 1.0
18/06:00am 7.4 5.1 5.7 89 0.8 SE 7 9 4 5 1029.2 1029.2 1.0
18/05:30am 7.7 6.4 6.0 89 0.8 SSE 2 6 1 3 1029.1 1029.1 1.0
18/05:00am 8.1 5.6 6.4 89 0.8 SSE 9 13 5 7 1029.1 1029.1 1.0
18/04:30am 6.8 3.9 4.6 86 0.9 SE 9 11 5 6 1029.0 1029.0 1.0
18/04:00am 8.8 6.3 6.4 85 1.1 SSE 9 13 5 7 1028.8 1028.8 1.0
18/03:30am 8.8 4.9 7.1 89 0.8 S 17 24 9 13 1028.9 1028.9 0.8
18/03:00am 8.7 5.9 7.0 89 0.8 S 11 22 6 12 1028.9 1028.9 0.8
18/02:30am 8.0 5.0 5.8 86 1.0 S 11 15 6 8 1028.7 1028.7 0.8
18/02:00am 8.3 5.4 6.3 87 0.9 SSE 11 19 6 10 1028.7 1028.7 0.8
18/01:30am 8.1 6.0 5.7 85 1.1 SSE 6 9 3 5 1028.6 1028.6 0.8
18/01:00am 7.6 5.4 5.1 84 1.1 E 6 6 3 3 1028.4 1028.4 0.8
18/12:30am 8.4 5.2 5.3 81 1.4 ESE 11 17 6 9 1028.5 1028.5 0.8
18/12:00am 9.3 4.2 6.0 80 1.5 S 22 32 12 17 1028.4 1028.4 0.8
 
Date/Time
CST
Temp
°C
App
Temp
°C
Dew
Point
°C
Rel
Hum
%
Delta-T
°C
Wind Press
QNH
hPa
Press
MSL
hPa
Rain since
9am
mm
Dir  Spd
km/h
Gust
km/h
Spd
kts
Gust
kts
17/11:30pm 9.3 4.7 5.7 78 1.6 SSW 19 24 10 13 1028.7 1028.7 0.8
17/11:00pm 9.6 3.0 6.0 78 1.7 S 30 39 16 21 1028.7 1028.7 0.8
17/10:30pm 9.5 5.3 5.7 77 1.7 SSE 17 28 9 15 1028.6 1028.6 0.8
17/10:00pm 9.6 2.9 5.8 77 1.7 S 30 41 16 22 1028.5 1028.5 0.8
17/09:30pm 9.0 3.5 6.1 82 1.3 SSE 24 33 13 18 1028.6 1028.6 0.8
17/09:00pm 9.3 3.9 6.4 82 1.3 SSE 24 41 13 22 1028.4 1028.4 0.6
17/08:30pm 10.0 2.9 5.6 74 2.0 S 32 39 17 21 1028.1 1028.1 0.6
17/08:00pm 10.1 3.9 6.1 76 1.9 SSW 28 33 15 18 1028.0 1028.0 0.6
17/07:32pm 10.6 4.5 6.4 75 2.0 S 28 46 15 25 1027.6 1027.6 0.6
17/07:30pm 10.4 4.9 6.0 74 2.0 S 24 41 13 22 1027.7 1027.7 0.6
17/07:00pm 9.9 1.9 5.7 75 1.9 S 37 50 20 27 1027.5 1027.5 0.6
17/06:30pm 10.9 4.6 5.7 70 2.4 S 28 35 15 19 1027.3 1027.3 0.6
17/06:00pm 10.9 3.5 4.8 66 2.7 SSW 33 46 18 25 1026.7 1026.7 0.6
17/05:36pm 11.1 3.7 4.1 62 3.1 SSW 32 50 17 27 1026.3 1026.3 0.6
17/05:30pm 11.1 3.9 3.2 58 3.4 SSW 30 37 16 20 1026.5 1026.5 0.6
17/05:00pm 10.6 5.1 6.0 73 2.1 S 24 37 13 20 1026.3 1026.3 0.6
17/04:30pm 11.4 3.9 4.2 61 3.2 SSW 33 43 18 23 1025.8 1025.8 0.6
17/04:00pm 10.9 4.9 5.4 69 2.5 S 26 33 14 18 1025.8 1025.8 0.6
17/03:30pm 11.7 4.3 4.9 63 3.1 S 33 44 18 24 1025.4 1025.4 0.6

Other Formats:

Comma delimited format used in spreadsheet applications
http://www.bom.gov.au/fwo/IDS60801/IDS60801.94813.axf

JavaScript Object Notation format (JSON) in row-major order
http://www.bom.gov.au/fwo/IDS60801/IDS60801.94813.json